createdAt,value
2022-12-19T00:01:36.983Z,-3.25
2022-12-19T00:04:08.104Z,-3.32
2022-12-19T00:06:35.838Z,-3.14
2022-12-19T00:09:02.513Z,-3.24
2022-12-19T00:11:30.219Z,-3.27
2022-12-19T00:13:57.280Z,-3.30
2022-12-19T00:16:26.475Z,-3.47
2022-12-19T00:18:55.706Z,-3.58
2022-12-19T00:21:24.248Z,-3.43
2022-12-19T00:23:51.167Z,-3.17
2022-12-19T00:26:17.632Z,-3.10
2022-12-19T00:28:46.607Z,-3.00
2022-12-19T00:31:14.592Z,-3.12
2022-12-19T00:33:43.685Z,-3.18
2022-12-19T00:36:12.555Z,-3.11
2022-12-19T00:38:39.167Z,-3.32
2022-12-19T00:41:10.931Z,-3.15
2022-12-19T00:43:38.662Z,-3.04
2022-12-19T00:46:08.829Z,-2.92
2022-12-19T00:48:35.691Z,-2.93
2022-12-19T00:51:16.955Z,-3.11
2022-12-19T00:53:45.304Z,-3.24
2022-12-19T00:56:14.750Z,-3.02
2022-12-19T00:58:46.588Z,-2.97
2022-12-19T01:01:28.415Z,-2.95
2022-12-19T01:06:41.465Z,-3.03
2022-12-19T01:09:09.557Z,-2.89
2022-12-19T01:11:54.462Z,-2.72
2022-12-19T01:14:23.037Z,-2.47
2022-12-19T01:16:50.564Z,-2.49
2022-12-19T01:19:17.333Z,-2.56
2022-12-19T01:21:43.795Z,-2.50
2022-12-19T01:24:10.701Z,-2.76
2022-12-19T01:26:37.472Z,-2.40
2022-12-19T01:29:04.723Z,-2.27
2022-12-19T01:31:31.231Z,-2.12
2022-12-19T01:34:00.030Z,-2.03
2022-12-19T01:36:28.133Z,-1.97
2022-12-19T01:38:58.243Z,-2.00
2022-12-19T01:41:24.876Z,-2.25
2022-12-19T01:43:58.666Z,-2.49
2022-12-19T01:46:29.949Z,-2.68
2022-12-19T01:48:57.066Z,-2.39
2022-12-19T01:51:29.348Z,-2.88
2022-12-19T01:54:01.948Z,-2.46
2022-12-19T01:56:33.122Z,-2.29
2022-12-19T01:59:05.764Z,-2.64
2022-12-19T02:01:34.644Z,-2.44
2022-12-19T02:04:02.725Z,-2.40
2022-12-19T02:06:31.286Z,-2.11
2022-12-19T02:08:58.167Z,-1.80
2022-12-19T02:11:24.569Z,-1.96
2022-12-19T02:13:52.534Z,-1.99
2022-12-19T02:16:21.614Z,-1.97
2022-12-19T02:18:51.736Z,-2.33
2022-12-19T02:21:46.619Z,-1.95
2022-12-19T02:24:22.475Z,-1.78
2022-12-19T02:27:04.066Z,-2.31
2022-12-19T02:29:54.767Z,-2.00
2022-12-19T02:32:41.303Z,-2.30
2022-12-19T02:35:34.165Z,-2.55
2022-12-19T02:38:29.001Z,-2.52
2022-12-19T02:41:01.613Z,-2.60
2022-12-19T02:43:32.199Z,-2.57
2022-12-19T02:46:01.458Z,-2.42
2022-12-19T02:48:29.213Z,-2.22
2022-12-19T02:50:55.637Z,-1.88
2022-12-19T02:53:23.989Z,-2.02
2022-12-19T02:56:03.968Z,-2.28
2022-12-19T02:58:40.267Z,-2.14
2022-12-19T03:01:08.005Z,-1.79
2022-12-19T03:04:02.431Z,-1.67
2022-12-19T03:06:40.600Z,-1.66
2022-12-19T03:09:30.180Z,-1.90
2022-12-19T03:12:05.220Z,-1.63
2022-12-19T03:14:32.939Z,-1.56
2022-12-19T03:17:04.595Z,-1.50
2022-12-19T03:19:32.102Z,-1.95
2022-12-19T03:21:58.913Z,-1.86
2022-12-19T03:24:26.077Z,-1.80
2022-12-19T03:27:03.192Z,-1.56
2022-12-19T03:29:34.380Z,-1.46
2022-12-19T03:32:05.448Z,-1.45
2022-12-19T03:34:39.186Z,-1.62
2022-12-19T03:37:11.312Z,-1.75
2022-12-19T03:39:41.001Z,-1.84
2022-12-19T03:42:27.085Z,-1.83
2022-12-19T03:44:55.567Z,-2.05
2022-12-19T03:47:32.900Z,-1.76
2022-12-19T03:49:59.546Z,-2.02
2022-12-19T03:52:33.920Z,-1.94
2022-12-19T03:55:03.289Z,-2.12
2022-12-19T03:57:35.973Z,-1.94
2022-12-19T04:00:08.006Z,-2.05
2022-12-19T04:02:37.569Z,-2.14
2022-12-19T04:05:13.376Z,-2.17
2022-12-19T04:07:41.055Z,-1.94
2022-12-19T04:10:15.569Z,-2.17
2022-12-19T04:12:48.803Z,-2.35
2022-12-19T04:15:16.326Z,-2.01
2022-12-19T04:17:51.728Z,-1.68
2022-12-19T04:20:21.080Z,-1.73
2022-12-19T04:22:59.671Z,-1.47
2022-12-19T04:25:30.551Z,-1.79
2022-12-19T04:28:05.298Z,-1.40
2022-12-19T04:30:36.789Z,-1.32
2022-12-19T04:33:03.661Z,-2.03
2022-12-19T04:35:30.185Z,-1.77
2022-12-19T04:37:56.542Z,-1.75
2022-12-19T04:40:23.032Z,-1.75
2022-12-19T04:42:49.415Z,-1.78
2022-12-19T04:45:16.678Z,-1.75
2022-12-19T04:47:43.348Z,-1.99
2022-12-19T04:50:10.204Z,-2.06
2022-12-19T04:52:36.760Z,-2.24
2022-12-19T04:55:03.340Z,-2.13
2022-12-19T04:57:31.167Z,-2.37
2022-12-19T04:59:58.143Z,-2.26
2022-12-19T05:02:25.614Z,-2.05
2022-12-19T05:04:52.187Z,-1.95
2022-12-19T05:07:18.571Z,-1.75
2022-12-19T05:09:44.974Z,-1.63
2022-12-19T05:12:11.419Z,-1.44
2022-12-19T05:14:38.173Z,-1.36
2022-12-19T05:17:04.705Z,-1.25
2022-12-19T05:19:31.303Z,-1.10
2022-12-19T05:21:58.112Z,-0.93
2022-12-19T05:24:24.615Z,-0.83
2022-12-19T05:26:51.003Z,-0.97
2022-12-19T05:29:17.616Z,-0.94
2022-12-19T05:31:44.085Z,-0.70
2022-12-19T05:34:10.579Z,-0.60
2022-12-19T05:36:37.079Z,-0.47
2022-12-19T05:39:03.540Z,-0.36
2022-12-19T05:41:30.029Z,-0.29
2022-12-19T05:43:56.683Z,-0.33
2022-12-19T05:46:25.074Z,-0.10
2022-12-19T05:48:51.748Z,-0.16
2022-12-19T05:51:18.564Z,-0.29
2022-12-19T05:53:45.032Z,-0.20
2022-12-19T05:56:14.756Z,-0.45
2022-12-19T05:58:43.376Z,-0.48
2022-12-19T06:01:16.854Z,-0.75
2022-12-19T06:03:44.116Z,-0.89
2022-12-19T06:06:13.690Z,-0.73
2022-12-19T06:08:40.464Z,-0.78
2022-12-19T06:11:08.576Z,-0.83
2022-12-19T06:13:35.951Z,-0.89
2022-12-19T06:16:05.548Z,-0.64
2022-12-19T06:18:32.346Z,-0.92
2022-12-19T06:21:04.711Z,-0.78
2022-12-19T06:23:33.016Z,-0.77
2022-12-19T06:26:00.738Z,-0.78
2022-12-19T06:28:29.526Z,-0.44
2022-12-19T06:30:57.291Z,-0.27
2022-12-19T06:33:24.077Z,-0.62
2022-12-19T06:36:00.626Z,-0.48
2022-12-19T06:38:28.931Z,-0.31
2022-12-19T06:41:14.526Z,-0.10
2022-12-19T06:43:41.066Z,0.20
2022-12-19T06:46:08.067Z,0.28
2022-12-19T06:48:34.589Z,0.47
2022-12-19T06:51:01.318Z,0.41
2022-12-19T06:53:28.143Z,0.28
2022-12-19T06:55:57.347Z,0.04
2022-12-19T06:58:24.496Z,0.05
2022-12-19T07:00:51.943Z,0.42
2022-12-19T07:03:24.245Z,0.56
2022-12-19T07:05:50.807Z,0.42
2022-12-19T07:08:17.427Z,0.65
2022-12-19T07:10:43.905Z,0.77
2022-12-19T07:13:10.417Z,0.75
2022-12-19T07:15:37.733Z,0.73
2022-12-19T07:18:06.478Z,0.63
2022-12-19T07:20:38.710Z,0.73
2022-12-19T07:23:09.728Z,0.74
2022-12-19T07:25:39.050Z,0.82
2022-12-19T07:28:06.971Z,0.90
2022-12-19T07:30:33.435Z,0.94
2022-12-19T07:32:59.901Z,1.07
2022-12-19T07:35:26.449Z,0.96
2022-12-19T07:37:52.805Z,1.05
2022-12-19T07:40:19.486Z,1.02
2022-12-19T07:42:45.962Z,0.81
2022-12-19T07:45:12.654Z,0.99
2022-12-19T07:47:39.148Z,0.95
2022-12-19T07:50:05.896Z,1.03
2022-12-19T07:52:32.407Z,1.10
2022-12-19T07:54:58.782Z,0.68
2022-12-19T07:57:25.191Z,0.89
2022-12-19T07:59:51.643Z,0.87
2022-12-19T08:02:18.312Z,0.93
2022-12-19T08:04:45.036Z,0.86
2022-12-19T08:07:11.498Z,0.96
2022-12-19T08:09:38.218Z,0.94
2022-12-19T08:12:04.715Z,1.12
2022-12-19T08:14:31.162Z,0.94
2022-12-19T08:19:44.080Z,0.96
2022-12-19T08:22:10.584Z,0.93
2022-12-19T08:24:37.462Z,0.86
2022-12-19T08:27:04.064Z,1.02
2022-12-19T08:29:30.525Z,0.94
2022-12-19T08:31:56.902Z,0.70
2022-12-19T08:34:23.376Z,0.88
2022-12-19T08:36:50.087Z,0.72
2022-12-19T08:39:16.634Z,0.85
2022-12-19T08:41:43.823Z,0.97
2022-12-19T08:44:11.418Z,0.89
2022-12-19T08:46:37.903Z,1.15
2022-12-19T08:49:04.437Z,1.08
2022-12-19T08:51:31.035Z,1.04
2022-12-19T08:53:58.128Z,1.03
2022-12-19T08:56:24.620Z,1.12
2022-12-19T08:58:52.111Z,1.07
2022-12-19T09:01:20.793Z,0.95
2022-12-19T09:04:07.273Z,1.06
2022-12-19T09:06:34.766Z,1.21
2022-12-19T09:09:01.306Z,1.39
2022-12-19T09:11:27.830Z,1.36
2022-12-19T09:13:57.408Z,1.74
2022-12-19T09:16:26.458Z,1.72
2022-12-19T09:18:56.928Z,1.76
2022-12-19T09:21:25.140Z,1.81
2022-12-19T09:24:00.561Z,1.93
2022-12-19T09:26:32.968Z,1.96
2022-12-19T09:29:00.859Z,2.23
2022-12-19T09:31:29.172Z,2.45
2022-12-19T09:33:55.617Z,2.09
2022-12-19T09:36:24.544Z,2.12
2022-12-19T09:38:54.432Z,1.71
2022-12-19T09:41:54.545Z,1.76
2022-12-19T09:44:45.605Z,1.36
2022-12-19T09:47:16.047Z,1.29
2022-12-19T09:49:45.196Z,1.50
2022-12-19T09:52:20.640Z,1.42
2022-12-19T09:54:56.187Z,1.40
2022-12-19T09:57:40.881Z,1.62
2022-12-19T10:00:18.343Z,1.88
2022-12-19T10:03:03.145Z,1.97
2022-12-19T10:06:37.189Z,2.15
2022-12-19T10:08:32.227Z,2.05
2022-12-19T10:12:47.857Z,1.74
2022-12-19T10:14:11.704Z,1.73
2022-12-19T10:17:24.645Z,1.84
2022-12-19T10:20:16.231Z,1.88
2022-12-19T10:23:07.043Z,1.88
2022-12-19T10:26:06.179Z,2.09
2022-12-19T10:28:35.231Z,2.23
2022-12-19T10:31:21.611Z,2.34
2022-12-19T10:34:22.359Z,2.12
2022-12-19T10:37:26.944Z,2.31
2022-12-19T10:39:47.295Z,2.43
2022-12-19T10:42:34.335Z,2.55
2022-12-19T10:45:06.259Z,2.68
2022-12-19T10:47:33.084Z,2.61
2022-12-19T10:50:04.005Z,2.54
2022-12-19T10:53:04.511Z,2.59
2022-12-19T10:55:51.605Z,2.23
2022-12-19T10:58:23.009Z,2.28
2022-12-19T11:00:58.244Z,2.33
2022-12-19T11:03:25.045Z,2.18
2022-12-19T11:05:58.835Z,2.12
2022-12-19T11:08:26.989Z,2.34
2022-12-19T11:13:07.745Z,2.28
2022-12-19T11:19:33.470Z,2.23
2022-12-19T11:20:44.503Z,2.14
2022-12-19T11:29:18.794Z,2.34
2022-12-19T11:29:30.653Z,2.20
2022-12-19T11:30:07.051Z,2.09
2022-12-19T11:30:36.953Z,1.88
2022-12-19T11:34:07.128Z,2.52
2022-12-19T11:36:43.460Z,2.60
2022-12-19T11:39:22.894Z,2.69
2022-12-19T11:42:29.161Z,2.88
2022-12-19T11:45:02.841Z,2.97
2022-12-19T11:47:48.495Z,2.97
2022-12-19T11:50:19.416Z,2.87
2022-12-19T11:53:19.941Z,2.64
2022-12-19T11:56:08.067Z,2.68
2022-12-19T11:58:49.430Z,2.72
2022-12-19T12:01:34.631Z,2.88
2022-12-19T12:04:15.942Z,3.03
2022-12-19T12:06:53.266Z,2.90
2022-12-19T12:13:17.277Z,2.74
2022-12-19T12:19:55.071Z,2.71
2022-12-19T12:25:01.431Z,2.81
2022-12-19T12:29:01.537Z,2.80
2022-12-19T12:31:14.804Z,2.40
2022-12-19T12:31:39.472Z,2.71
2022-12-19T12:31:43.273Z,2.58
2022-12-19T12:35:51.823Z,3.16
2022-12-19T12:40:53.206Z,3.12
2022-12-19T12:43:40.619Z,3.20
2022-12-19T12:46:14.782Z,3.17
2022-12-19T12:48:54.247Z,3.35
2022-12-19T12:51:22.239Z,3.33
2022-12-19T12:53:49.775Z,3.33
2022-12-19T12:56:18.459Z,3.27
2022-12-19T12:58:54.100Z,2.96
2022-12-19T13:01:29.961Z,2.88
2022-12-19T13:04:02.243Z,2.83
2022-12-19T13:06:40.733Z,3.14
2022-12-19T13:09:09.875Z,3.16
2022-12-19T13:11:56.421Z,3.36
2022-12-19T13:14:34.859Z,3.10
2022-12-19T13:17:06.131Z,3.15
2022-12-19T13:19:51.838Z,2.85
2022-12-19T13:22:21.330Z,2.90
2022-12-19T13:24:51.113Z,2.86
2022-12-19T13:27:20.723Z,2.77
2022-12-19T13:30:07.936Z,2.68
2022-12-19T13:32:40.095Z,2.57
2022-12-19T13:36:31.057Z,2.77
2022-12-19T13:39:58.210Z,2.93
2022-12-19T13:41:49.494Z,3.22
2022-12-19T13:44:21.879Z,3.41
2022-12-19T13:46:49.624Z,3.49
2022-12-19T13:49:31.844Z,3.79
2022-12-19T13:52:02.868Z,3.84
2022-12-19T13:54:34.592Z,3.92
2022-12-19T13:57:06.602Z,3.98
2022-12-19T13:59:38.557Z,3.98
2022-12-19T14:02:17.976Z,3.93
2022-12-19T14:04:45.519Z,3.92
2022-12-19T14:07:36.476Z,3.74
2022-12-19T14:11:39.332Z,3.82
2022-12-19T14:13:49.227Z,3.76
2022-12-19T14:16:18.297Z,3.70
2022-12-19T14:18:56.085Z,3.70
2022-12-19T14:22:05.173Z,3.53
2022-12-19T14:24:22.245Z,3.25
2022-12-19T14:28:23.894Z,3.14
2022-12-19T14:30:27.900Z,3.27
2022-12-19T14:33:46.388Z,3.53
2022-12-19T14:36:10.439Z,3.73
2022-12-19T14:39:23.785Z,3.71
2022-12-19T14:41:46.147Z,3.65
2022-12-19T14:52:50.879Z,3.56
2022-12-19T14:54:11.033Z,3.38
2022-12-19T14:54:22.848Z,3.35
2022-12-19T14:54:34.136Z,3.42
2022-12-19T14:56:47.483Z,3.38
2022-12-19T14:59:00.380Z,3.35
2022-12-19T15:01:30.684Z,3.31
2022-12-19T15:04:48.410Z,3.12
2022-12-19T15:07:07.491Z,3.13
2022-12-19T15:11:09.292Z,2.82
2022-12-19T15:14:47.194Z,2.92
2022-12-19T15:16:04.604Z,2.82
2022-12-19T15:18:34.222Z,2.86
2022-12-19T15:21:08.109Z,2.87
2022-12-19T15:23:34.555Z,2.70
2022-12-19T15:26:06.045Z,2.59
2022-12-19T15:28:40.250Z,2.54
2022-12-19T15:31:27.927Z,2.46
2022-12-19T15:36:41.096Z,2.38
2022-12-19T15:39:07.501Z,2.23
2022-12-19T15:41:34.315Z,2.17
2022-12-19T15:44:09.976Z,2.25
2022-12-19T15:46:38.909Z,2.17
2022-12-19T15:49:17.438Z,2.02
2022-12-19T15:51:44.280Z,2.03
2022-12-19T15:54:46.542Z,1.96
2022-12-19T15:56:57.405Z,1.85
2022-12-19T15:59:29.866Z,1.82
2022-12-19T16:02:01.974Z,1.92
2022-12-19T16:04:28.812Z,1.73
2022-12-19T16:06:55.426Z,1.80
2022-12-19T16:09:27.787Z,1.65
2022-12-19T16:11:54.862Z,1.73
2022-12-19T16:14:22.481Z,1.78
2022-12-19T16:16:57.799Z,1.64
2022-12-19T16:19:25.814Z,1.69
2022-12-19T16:21:52.864Z,1.69
2022-12-19T16:24:20.098Z,1.47
2022-12-19T16:26:57.747Z,1.64
2022-12-19T16:29:27.925Z,1.66
2022-12-19T16:31:55.364Z,1.64
2022-12-19T16:34:24.378Z,1.63
2022-12-19T16:36:51.245Z,1.54
2022-12-19T16:39:18.201Z,1.49
2022-12-19T16:41:45.568Z,1.41
2022-12-19T16:44:20.367Z,1.50
2022-12-19T16:46:51.128Z,1.31
2022-12-19T16:49:20.582Z,1.46
2022-12-19T16:51:47.728Z,1.43
2022-12-19T16:54:15.517Z,1.44
2022-12-19T16:56:48.813Z,1.39
2022-12-19T16:59:30.043Z,1.40
2022-12-19T17:01:57.661Z,1.36
2022-12-19T17:04:25.652Z,1.35
2022-12-19T17:06:53.627Z,1.25
2022-12-19T17:09:23.112Z,1.38
2022-12-19T17:12:01.255Z,1.28
2022-12-19T17:14:31.949Z,1.27
2022-12-19T17:16:59.343Z,1.34
2022-12-19T17:19:38.433Z,1.26
2022-12-19T17:22:15.882Z,1.32
2022-12-19T17:24:45.037Z,1.39
2022-12-19T17:27:11.476Z,1.45
2022-12-19T17:29:37.997Z,1.51
2022-12-19T17:32:06.847Z,1.38
2022-12-19T17:34:33.979Z,1.54
2022-12-19T17:37:02.698Z,1.51
2022-12-19T17:39:32.009Z,1.52
2022-12-19T17:42:21.732Z,1.68
2022-12-19T17:44:48.167Z,1.65
2022-12-19T17:47:15.843Z,1.56
2022-12-19T17:49:42.843Z,1.52
2022-12-19T17:52:15.609Z,1.50
2022-12-19T17:54:42.488Z,1.20
2022-12-19T17:57:15.823Z,1.44
2022-12-19T17:59:42.401Z,1.50
2022-12-19T18:07:56.474Z,1.20
2022-12-19T18:10:26.466Z,1.22
2022-12-19T18:12:53.752Z,1.58
2022-12-19T18:15:22.240Z,2.07
2022-12-19T18:17:50.316Z,3.19
2022-12-19T18:20:32.257Z,3.78
2022-12-19T18:23:00.046Z,4.39
2022-12-19T18:25:29.160Z,4.72
2022-12-19T18:27:55.638Z,5.07
2022-12-19T18:30:23.806Z,5.26
2022-12-19T18:32:55.289Z,5.42
2022-12-19T18:35:40.464Z,5.57
2022-12-19T18:38:12.438Z,5.63
2022-12-19T18:40:39.249Z,5.59
2022-12-19T18:43:06.002Z,5.49
2022-12-19T18:45:38.783Z,5.26
2022-12-19T18:48:15.540Z,5.05
2022-12-19T18:50:42.045Z,5.09
2022-12-19T18:53:12.281Z,5.10
2022-12-19T18:55:39.024Z,5.16
2022-12-19T18:58:05.644Z,5.23
2022-12-19T19:00:32.511Z,5.13
2022-12-19T19:03:02.459Z,5.15
2022-12-19T19:05:32.097Z,5.04
2022-12-19T19:08:12.054Z,4.91
2022-12-19T19:10:38.787Z,4.94
2022-12-19T19:13:10.016Z,4.74
2022-12-19T19:15:46.646Z,4.77
2022-12-19T19:18:13.753Z,4.75
2022-12-19T19:20:41.816Z,4.79
2022-12-19T19:23:11.248Z,4.88
2022-12-19T19:25:37.959Z,5.10
2022-12-19T19:28:06.448Z,5.27
2022-12-19T19:30:35.908Z,5.32
2022-12-19T19:33:10.904Z,5.26
2022-12-19T19:35:38.092Z,5.45
2022-12-19T19:38:07.032Z,5.46
2022-12-19T19:40:35.239Z,5.54
2022-12-19T19:43:01.914Z,5.42
2022-12-19T19:45:28.435Z,5.54
2022-12-19T19:47:55.463Z,5.57
2022-12-19T19:50:22.458Z,5.51
2022-12-19T19:52:48.917Z,5.69
2022-12-19T19:55:16.015Z,5.73
2022-12-19T19:57:42.508Z,5.76
2022-12-19T20:00:09.678Z,5.85
2022-12-19T20:02:37.231Z,5.95
2022-12-19T20:05:04.137Z,5.92
2022-12-19T20:07:30.783Z,5.90
2022-12-19T20:09:57.269Z,6.03
2022-12-19T20:12:24.261Z,6.13
2022-12-19T20:14:50.796Z,6.23
2022-12-19T20:17:17.458Z,6.26
2022-12-19T20:19:43.945Z,6.30
2022-12-19T20:22:10.467Z,6.41
2022-12-19T20:24:36.887Z,6.37
2022-12-19T20:27:03.432Z,6.18
2022-12-19T20:29:30.510Z,6.29
2022-12-19T20:31:57.065Z,6.24
2022-12-19T20:34:23.905Z,6.35
2022-12-19T20:36:50.389Z,6.19
2022-12-19T20:39:21.929Z,6.26
2022-12-19T20:41:52.806Z,6.28
2022-12-19T20:44:24.125Z,6.13
2022-12-19T20:46:51.059Z,6.19
2022-12-19T20:49:18.595Z,6.29
2022-12-19T20:51:47.549Z,6.26
2022-12-19T20:54:15.663Z,6.27
2022-12-19T20:56:42.129Z,6.35
2022-12-19T20:59:09.596Z,6.15
2022-12-19T21:01:36.251Z,6.08
2022-12-19T21:04:08.682Z,6.16
2022-12-19T21:06:37.809Z,6.21
2022-12-19T21:09:06.038Z,6.07
2022-12-19T21:11:33.571Z,6.10
2022-12-19T21:14:00.109Z,6.12
2022-12-19T21:16:26.603Z,6.14
2022-12-19T21:18:53.398Z,6.22
2022-12-19T21:21:24.903Z,6.11
2022-12-19T21:23:52.648Z,6.09
2022-12-19T21:26:19.881Z,6.28
2022-12-19T21:28:46.380Z,6.42
2022-12-19T21:31:17.096Z,6.42
2022-12-19T21:33:44.321Z,6.43
2022-12-19T21:36:17.683Z,6.58
2022-12-19T21:38:45.275Z,6.68
2022-12-19T21:41:12.897Z,6.66
2022-12-19T21:43:39.314Z,6.56
2022-12-19T21:46:10.554Z,6.60
2022-12-19T21:48:50.603Z,6.56
2022-12-19T21:51:19.625Z,6.50
2022-12-19T21:53:46.506Z,6.58
2022-12-19T21:56:25.034Z,6.65
2022-12-19T21:58:57.157Z,6.66
2022-12-19T22:01:24.221Z,6.78
2022-12-19T22:03:51.547Z,6.71
2022-12-19T22:06:27.391Z,6.79
2022-12-19T22:08:55.118Z,6.81
2022-12-19T22:11:21.997Z,6.92
2022-12-19T22:13:49.478Z,6.88
2022-12-19T22:16:16.581Z,6.87
2022-12-19T22:18:43.864Z,6.91
2022-12-19T22:21:15.056Z,6.95
2022-12-19T22:23:42.297Z,6.82
2022-12-19T22:26:21.156Z,6.89
2022-12-19T22:28:50.037Z,6.79
2022-12-19T22:31:27.967Z,6.91
2022-12-19T22:33:57.400Z,6.77
2022-12-19T22:36:28.404Z,6.79
2022-12-19T22:38:56.583Z,6.94
2022-12-19T22:41:23.166Z,6.58
2022-12-19T22:43:50.248Z,6.83
2022-12-19T22:46:24.185Z,6.48
2022-12-19T22:48:55.153Z,6.23
2022-12-19T22:51:21.595Z,6.33
2022-12-19T22:53:48.210Z,6.29
2022-12-19T22:56:26.816Z,6.24
2022-12-19T22:58:55.315Z,6.47
2022-12-19T23:01:25.032Z,6.27
2022-12-19T23:03:54.057Z,6.43
2022-12-19T23:06:22.020Z,6.58
2022-12-19T23:08:49.026Z,6.68
2022-12-19T23:11:19.021Z,6.46
2022-12-19T23:13:47.219Z,6.17
2022-12-19T23:16:13.761Z,5.68
2022-12-19T23:18:41.234Z,5.76
2022-12-19T23:21:16.387Z,5.63
2022-12-19T23:23:44.912Z,5.41
2022-12-19T23:26:22.604Z,5.36
2022-12-19T23:29:00.961Z,5.21
2022-12-19T23:31:28.416Z,5.22
2022-12-19T23:33:55.801Z,5.22
2022-12-19T23:36:45.138Z,5.24
2022-12-19T23:39:10.862Z,5.09
2022-12-19T23:41:38.007Z,4.99
2022-12-19T23:44:04.719Z,4.89
2022-12-19T23:46:31.276Z,4.84
2022-12-19T23:48:57.903Z,4.83
2022-12-19T23:51:26.821Z,4.73
2022-12-19T23:53:55.058Z,4.70
2022-12-19T23:56:29.184Z,4.60
2022-12-19T23:58:56.526Z,4.63
